createdAt,value
2017-09-14T00:00:39.516Z,12.80
2017-09-14T00:03:07.615Z,12.80
2017-09-14T00:05:35.711Z,12.80
2017-09-14T00:08:04.581Z,12.80
2017-09-14T00:10:32.662Z,12.80
2017-09-14T00:13:01.550Z,12.90
2017-09-14T00:15:29.633Z,12.80
2017-09-14T00:17:57.707Z,12.90
2017-09-14T00:20:26.576Z,12.80
2017-09-14T00:22:54.660Z,12.90
2017-09-14T00:25:23.526Z,12.90
2017-09-14T00:27:52.412Z,12.90
2017-09-14T00:30:20.488Z,12.90
2017-09-14T00:32:48.564Z,12.90
2017-09-14T00:35:16.668Z,12.90
2017-09-14T00:37:45.517Z,12.90
2017-09-14T00:40:13.588Z,12.90
2017-09-14T00:42:42.447Z,12.90
2017-09-14T00:45:10.555Z,12.90
2017-09-14T00:47:38.635Z,12.90
2017-09-14T00:50:06.719Z,12.90
2017-09-14T00:52:34.838Z,12.90
2017-09-14T00:55:02.916Z,12.90
2017-09-14T00:57:31.558Z,12.90
2017-09-14T00:59:59.655Z,12.90
2017-09-14T01:02:28.128Z,12.90
2017-09-14T01:04:56.987Z,12.80
2017-09-14T01:07:25.099Z,12.80
2017-09-14T01:09:53.175Z,12.90
2017-09-14T01:12:21.247Z,12.90
2017-09-14T01:15:07.003Z,12.80
2017-09-14T01:17:35.474Z,12.80
2017-09-14T01:20:03.557Z,12.80
2017-09-14T01:22:31.686Z,12.80
2017-09-14T01:24:59.750Z,12.80
2017-09-14T01:27:27.826Z,12.80
2017-09-14T01:29:56.679Z,12.80
2017-09-14T01:32:25.526Z,12.80
2017-09-14T01:34:53.635Z,12.80
2017-09-14T01:37:22.475Z,12.80
2017-09-14T01:39:51.339Z,12.80
2017-09-14T01:42:19.424Z,12.80
2017-09-14T01:44:47.532Z,12.80
2017-09-14T01:47:15.622Z,12.80
2017-09-14T01:49:43.704Z,12.80
2017-09-14T01:52:12.563Z,12.80
2017-09-14T01:54:40.654Z,12.80
2017-09-14T01:57:08.764Z,12.80
2017-09-14T01:59:36.843Z,12.80
2017-09-14T02:02:04.919Z,12.80
2017-09-14T02:04:33.791Z,12.80
2017-09-14T02:07:01.876Z,12.80
2017-09-14T02:09:29.984Z,12.80
2017-09-14T02:11:58.058Z,12.80
2017-09-14T02:14:26.174Z,12.80
2017-09-14T02:16:54.256Z,12.80
2017-09-14T02:19:22.730Z,12.80
2017-09-14T02:21:51.590Z,12.80
2017-09-14T02:24:19.711Z,12.80
2017-09-14T02:26:47.791Z,12.80
2017-09-14T02:29:15.863Z,12.80
2017-09-14T02:31:43.983Z,12.80
2017-09-14T02:34:12.054Z,12.80
2017-09-14T02:36:40.131Z,12.80
2017-09-14T02:39:08.235Z,12.80
2017-09-14T02:41:36.312Z,12.80
2017-09-14T04:06:02.875Z,12.20
2017-09-14T04:08:31.729Z,12.20
2017-09-14T04:10:59.807Z,12.20
2017-09-14T04:13:27.903Z,12.20
2017-09-14T04:15:56.383Z,12.20
2017-09-14T04:18:24.457Z,12.10
2017-09-14T04:20:52.551Z,12.10
2017-09-14T04:23:21.403Z,12.00
2017-09-14T04:25:49.506Z,12.00
2017-09-14T04:28:18.372Z,12.00
2017-09-14T04:30:46.455Z,12.10
2017-09-14T04:33:14.570Z,12.10
2017-09-14T04:35:43.050Z,12.10
2017-09-14T04:38:11.518Z,12.00
2017-09-14T04:40:39.622Z,12.00
2017-09-14T04:43:07.698Z,11.90
2017-09-14T04:45:36.191Z,11.90
2017-09-14T04:48:04.274Z,11.90
2017-09-14T04:50:32.382Z,12.00
2017-09-14T04:53:01.223Z,12.00
2017-09-14T04:55:29.344Z,12.00
2017-09-14T04:57:57.402Z,12.00
2017-09-14T05:00:26.242Z,12.00
2017-09-14T05:02:54.334Z,12.00
2017-09-14T05:05:22.418Z,12.00
2017-09-14T05:07:50.595Z,12.10
2017-09-14T05:10:19.067Z,12.20
2017-09-14T05:12:47.142Z,12.20
2017-09-14T05:15:15.238Z,12.50
2017-09-14T05:17:44.082Z,12.60
2017-09-14T05:20:12.167Z,12.70
2017-09-14T05:22:40.658Z,12.60
2017-09-14T05:25:09.131Z,12.40
2017-09-14T05:27:37.234Z,12.20
2017-09-14T05:30:05.731Z,12.10
2017-09-14T05:32:34.572Z,12.00
2017-09-14T05:35:02.675Z,12.00
2017-09-14T05:37:30.960Z,11.90
2017-09-14T05:39:59.798Z,11.90
2017-09-14T05:42:27.903Z,11.90
2017-09-14T05:44:57.549Z,11.80
2017-09-14T05:47:26.403Z,11.80
2017-09-14T05:49:54.498Z,11.80
2017-09-14T05:52:23.339Z,11.80
2017-09-14T05:54:51.438Z,11.80
2017-09-14T05:57:19.511Z,11.80
2017-09-14T05:59:47.628Z,11.80
2017-09-14T06:02:15.699Z,11.80
2017-09-14T06:04:43.778Z,11.80
2017-09-14T06:07:11.887Z,11.80
2017-09-14T06:09:39.966Z,11.80
2017-09-14T06:12:08.039Z,11.90
2017-09-14T06:14:36.142Z,11.80
2017-09-14T06:17:04.978Z,11.80
2017-09-14T06:19:33.843Z,11.80
2017-09-14T06:22:01.931Z,11.80
2017-09-14T06:24:30.787Z,11.90
2017-09-14T06:26:59.646Z,11.80
2017-09-14T06:29:27.741Z,11.80
2017-09-14T06:31:56.595Z,11.80
2017-09-14T06:34:24.698Z,11.80
2017-09-14T06:36:52.802Z,11.80
2017-09-14T06:39:21.646Z,11.80
2017-09-14T06:41:49.722Z,11.80
2017-09-14T06:44:18.195Z,11.70
2017-09-14T06:46:46.695Z,11.70
2017-09-14T06:49:15.534Z,11.70
2017-09-14T06:51:43.612Z,11.70
2017-09-14T06:54:11.702Z,11.70
2017-09-14T06:56:39.779Z,11.70
2017-09-14T06:59:07.878Z,11.70
2017-09-14T07:01:36.718Z,11.60
2017-09-14T07:04:04.810Z,11.60
2017-09-14T07:06:32.922Z,11.50
2017-09-14T07:09:01.764Z,11.60
2017-09-14T07:11:29.855Z,11.60
2017-09-14T07:13:57.931Z,11.60
2017-09-14T07:16:26.029Z,11.60
2017-09-14T07:18:54.871Z,11.60
2017-09-14T07:21:22.984Z,11.60
2017-09-14T07:23:51.447Z,11.60
2017-09-14T07:26:19.525Z,11.60
2017-09-14T07:28:47.614Z,11.50
2017-09-14T07:31:16.455Z,11.60
2017-09-14T07:33:45.335Z,11.50
2017-09-14T07:36:13.407Z,11.50
2017-09-14T07:38:41.483Z,11.50
2017-09-14T07:41:09.579Z,11.50
2017-09-14T07:43:37.651Z,11.50
2017-09-14T07:46:05.762Z,11.50
2017-09-14T07:48:33.839Z,11.60
2017-09-14T07:51:01.919Z,11.60
2017-09-14T07:53:30.014Z,11.60
2017-09-14T07:55:58.090Z,11.60
2017-09-14T07:58:26.189Z,11.60
2017-09-14T08:00:54.283Z,11.60
2017-09-14T08:03:23.190Z,11.60
2017-09-14T08:05:51.659Z,11.60
2017-09-14T08:08:20.517Z,11.60
2017-09-14T08:10:48.617Z,11.60
2017-09-14T08:13:17.463Z,11.70
2017-09-14T08:15:45.530Z,11.70
2017-09-14T08:18:13.623Z,11.70
2017-09-14T08:20:41.711Z,11.70
2017-09-14T08:23:09.819Z,11.70
2017-09-14T08:25:37.899Z,11.80
2017-09-14T08:28:06.379Z,11.80
2017-09-14T08:30:34.470Z,11.80
2017-09-14T08:33:02.562Z,11.70
2017-09-14T08:35:30.635Z,11.70
2017-09-14T08:37:58.726Z,11.70
2017-09-14T08:40:26.803Z,11.80
2017-09-14T08:42:54.901Z,11.80
2017-09-14T08:45:23.744Z,11.80
2017-09-14T08:47:52.615Z,11.80
2017-09-14T08:50:20.703Z,11.80
2017-09-14T08:52:48.771Z,11.90
2017-09-14T08:55:17.262Z,11.90
2017-09-14T08:57:45.358Z,11.90
2017-09-14T09:00:13.474Z,11.90
2017-09-14T09:02:41.576Z,11.90
2017-09-14T09:05:09.659Z,11.90
2017-09-14T09:07:38.147Z,11.90
2017-09-14T09:10:06.635Z,11.90
2017-09-14T09:12:34.715Z,11.90
2017-09-14T09:15:03.575Z,12.00
2017-09-14T09:17:32.338Z,12.00
2017-09-14T09:20:01.546Z,12.00
2017-09-14T09:22:29.638Z,12.00
2017-09-14T09:24:57.719Z,12.00
2017-09-14T09:27:25.806Z,12.00
2017-09-14T09:29:53.895Z,11.90
2017-09-14T09:32:22.755Z,11.90
2017-09-14T09:34:50.830Z,11.90
2017-09-14T09:37:18.923Z,11.90
2017-09-14T09:39:47.795Z,11.80
2017-09-14T09:42:16.267Z,11.90
2017-09-14T09:44:44.338Z,11.90
2017-09-14T09:47:12.435Z,11.80
2017-09-14T09:49:41.286Z,11.80
2017-09-14T09:52:09.758Z,11.80
2017-09-14T09:54:37.851Z,11.80
2017-09-14T09:57:05.946Z,11.90
2017-09-14T09:59:34.786Z,12.00
2017-09-14T10:02:02.886Z,12.10
2017-09-14T10:04:30.959Z,12.10
2017-09-14T10:06:59.050Z,12.10
2017-09-14T10:09:27.910Z,12.20
2017-09-14T10:11:55.982Z,12.30
2017-09-14T10:14:24.079Z,12.40
2017-09-14T10:16:52.155Z,12.30
2017-09-14T10:19:20.995Z,12.30
2017-09-14T10:21:50.234Z,12.30
2017-09-14T10:24:18.707Z,12.40
2017-09-14T10:26:46.810Z,12.50
2017-09-14T10:29:15.643Z,12.60
2017-09-14T10:31:43.719Z,12.80
2017-09-14T10:34:12.213Z,13.20
2017-09-14T10:36:40.283Z,13.80
2017-09-14T10:39:08.394Z,14.70
2017-09-14T10:41:36.951Z,15.80
2017-09-14T10:44:05.022Z,16.20
2017-09-14T10:46:33.510Z,16.70
2017-09-14T10:49:01.583Z,17.00
2017-09-14T10:51:30.070Z,17.00
2017-09-14T10:53:58.170Z,16.80
2017-09-14T10:56:27.003Z,17.00
2017-09-14T10:58:55.863Z,16.50
2017-09-14T11:01:23.971Z,15.60
2017-09-14T11:03:52.064Z,15.40
2017-09-14T11:06:21.666Z,15.50
2017-09-14T11:08:50.502Z,15.40
2017-09-14T11:11:18.594Z,16.10
2017-09-14T11:13:46.668Z,16.90
2017-09-14T11:16:15.895Z,16.90
2017-09-14T11:18:43.970Z,16.40
2017-09-14T11:21:12.063Z,15.80
2017-09-14T11:23:40.911Z,15.40
2017-09-14T11:26:08.998Z,15.00
2017-09-14T11:28:37.074Z,14.60
2017-09-14T11:31:05.183Z,14.30
2017-09-14T11:33:34.043Z,14.10
2017-09-14T11:36:02.116Z,13.80
2017-09-14T11:38:30.210Z,13.60
2017-09-14T11:40:59.070Z,13.50
2017-09-14T11:43:27.175Z,13.60
2017-09-14T11:45:55.650Z,14.50
2017-09-14T11:48:24.491Z,14.50
2017-09-14T11:50:52.595Z,14.20
2017-09-14T11:53:20.671Z,13.90
2017-09-14T11:55:48.742Z,13.70
2017-09-14T11:58:18.359Z,13.40
2017-09-14T12:00:46.830Z,13.20
2017-09-14T12:03:14.902Z,13.00
2017-09-14T12:05:43.391Z,12.80
2017-09-14T12:08:11.488Z,12.60
2017-09-14T12:10:39.563Z,12.50
2017-09-14T12:13:07.674Z,12.40
2017-09-14T12:15:35.755Z,12.30
2017-09-14T12:18:03.830Z,12.20
2017-09-14T12:20:31.930Z,12.30
2017-09-14T12:23:00.771Z,12.30
2017-09-14T12:25:28.846Z,12.40
2017-09-14T12:27:56.935Z,12.60
2017-09-14T12:30:25.007Z,12.50
2017-09-14T12:32:53.102Z,12.50
2017-09-14T12:35:21.198Z,12.30
2017-09-14T12:37:49.279Z,12.20
2017-09-14T12:40:17.378Z,12.20
2017-09-14T12:42:45.458Z,12.20
2017-09-14T12:45:13.530Z,12.40
2017-09-14T12:47:41.636Z,12.60
2017-09-14T12:50:09.712Z,12.70
2017-09-14T12:52:37.787Z,12.80
2017-09-14T12:55:06.643Z,13.00
2017-09-14T12:57:34.714Z,13.20
2017-09-14T13:00:02.831Z,13.30
2017-09-14T13:02:31.294Z,13.30
2017-09-14T13:04:59.366Z,13.20
2017-09-14T13:07:27.459Z,13.20
2017-09-14T13:09:56.304Z,13.10
2017-09-14T13:12:24.395Z,13.00
2017-09-14T13:14:52.471Z,13.00
2017-09-14T13:17:20.554Z,13.30
2017-09-14T13:19:49.422Z,13.60
2017-09-14T13:22:17.510Z,13.60
2017-09-14T13:24:45.614Z,13.50
2017-09-14T13:27:13.687Z,13.50
2017-09-14T13:29:41.762Z,14.10
2017-09-14T13:32:09.855Z,14.70
2017-09-14T13:34:37.924Z,14.50
2017-09-14T13:37:06.015Z,14.20
2017-09-14T13:39:34.487Z,13.90
2017-09-14T13:42:03.361Z,14.00
2017-09-14T13:44:32.195Z,14.20
2017-09-14T13:47:00.266Z,14.70
2017-09-14T13:49:28.363Z,14.60
2017-09-14T13:51:56.831Z,14.40
2017-09-14T13:54:24.930Z,14.00
2017-09-14T13:56:53.008Z,13.80
2017-09-14T13:59:21.106Z,13.70
2017-09-14T14:01:49.183Z,13.90
2017-09-14T14:04:18.018Z,14.70
2017-09-14T14:06:46.507Z,14.80
2017-09-14T14:09:15.355Z,14.90
2017-09-14T14:11:43.843Z,15.60
2017-09-14T14:14:11.918Z,16.70
2017-09-14T14:16:40.002Z,18.10
2017-09-14T14:19:08.116Z,19.50
2017-09-14T14:21:36.178Z,20.00
2017-09-14T14:24:04.250Z,17.90
2017-09-14T14:26:32.342Z,17.60
2017-09-14T14:29:00.415Z,16.70
2017-09-14T14:31:28.515Z,15.70
2017-09-14T14:33:56.586Z,15.10
2017-09-14T14:36:24.659Z,14.80
2017-09-14T14:38:52.756Z,14.70
2017-09-14T14:41:20.832Z,14.60
2017-09-14T14:43:49.703Z,14.50
2017-09-14T14:46:17.779Z,14.40
2017-09-14T14:48:47.358Z,14.30
2017-09-14T14:51:15.448Z,14.20
2017-09-14T14:53:43.535Z,14.10
2017-09-14T14:56:11.643Z,14.10
2017-09-14T14:58:39.720Z,14.00
2017-09-14T15:01:07.795Z,14.00
2017-09-14T15:03:36.299Z,15.40
2017-09-14T15:06:04.375Z,17.40
2017-09-14T15:08:32.447Z,18.60
2017-09-14T15:11:00.534Z,18.20
2017-09-14T15:13:28.631Z,16.90
2017-09-14T15:15:57.472Z,16.00
2017-09-14T15:18:26.708Z,15.40
2017-09-14T15:20:55.175Z,15.10
2017-09-14T15:23:23.251Z,15.10
2017-09-14T15:25:51.343Z,15.20
2017-09-14T15:28:19.419Z,15.60
2017-09-14T15:30:48.279Z,15.20
2017-09-14T15:33:16.379Z,15.00
2017-09-14T15:35:44.846Z,15.20
2017-09-14T15:38:12.914Z,16.30
2017-09-14T15:40:48.085Z,16.10
2017-09-14T15:43:22.579Z,15.50
2017-09-14T15:45:50.655Z,15.20
2017-09-14T15:48:24.443Z,15.00
2017-09-14T15:51:08.184Z,15.40
2017-09-14T15:53:36.255Z,15.30
2017-09-14T15:56:04.335Z,15.10
2017-09-14T15:58:32.426Z,15.10
2017-09-14T16:01:01.287Z,15.00
2017-09-14T16:03:29.367Z,15.10
2017-09-14T16:05:57.462Z,15.40
2017-09-14T16:08:25.962Z,15.80
2017-09-14T16:10:54.039Z,16.00
2017-09-14T16:13:22.111Z,15.70
2017-09-14T16:15:50.216Z,15.40
2017-09-14T16:18:18.299Z,14.90
2017-09-14T16:20:46.387Z,14.80
2017-09-14T16:23:14.471Z,14.60
2017-09-14T16:25:42.542Z,14.50
2017-09-14T16:28:10.656Z,14.30
2017-09-14T16:30:38.718Z,14.20
2017-09-14T16:33:06.790Z,14.10
2017-09-14T16:35:37.063Z,14.00
2017-09-14T16:38:05.158Z,14.00
2017-09-14T16:40:33.235Z,14.00
2017-09-14T16:43:01.723Z,13.80
2017-09-14T16:45:30.566Z,13.50
2017-09-14T16:47:58.675Z,13.00
2017-09-14T16:50:26.779Z,12.60
2017-09-14T16:52:55.230Z,12.20
2017-09-14T16:55:23.718Z,12.00
2017-09-14T16:57:52.187Z,11.90
2017-09-14T17:00:26.095Z,11.80
2017-09-14T17:02:54.179Z,11.70
2017-09-14T17:05:23.043Z,11.70
2017-09-14T17:07:51.514Z,11.60
2017-09-14T17:10:20.378Z,11.50
2017-09-14T17:12:48.468Z,11.40
2017-09-14T17:15:16.539Z,11.30
2017-09-14T17:17:44.639Z,11.20
2017-09-14T17:20:12.710Z,11.20
2017-09-14T17:22:42.295Z,11.20
2017-09-14T17:25:10.387Z,11.20
2017-09-14T17:27:38.459Z,11.20
2017-09-14T17:30:06.559Z,11.10
2017-09-14T17:32:35.055Z,11.20
2017-09-14T17:35:03.136Z,11.10
2017-09-14T17:37:32.139Z,11.10
2017-09-14T17:40:00.247Z,11.10
2017-09-14T17:42:28.319Z,11.00
2017-09-14T17:44:56.395Z,11.00
2017-09-14T17:47:24.486Z,11.10
2017-09-14T17:49:53.022Z,11.00
2017-09-14T17:52:21.087Z,11.10
2017-09-14T17:54:49.170Z,11.00
2017-09-14T17:57:17.274Z,11.00
2017-09-14T17:59:45.360Z,11.10
2017-09-14T18:02:13.440Z,11.10
2017-09-14T18:04:42.291Z,11.10
2017-09-14T18:07:10.763Z,11.20
2017-09-14T18:09:38.867Z,11.10
2017-09-14T18:12:07.342Z,11.20
2017-09-14T18:14:35.811Z,11.20
2017-09-14T18:17:05.418Z,11.20
2017-09-14T18:19:33.895Z,11.20
2017-09-14T18:22:01.967Z,11.10
2017-09-14T18:24:30.060Z,11.10
2017-09-14T18:26:58.139Z,11.10
2017-09-14T18:29:26.631Z,11.10
2017-09-14T18:31:55.103Z,11.10
2017-09-14T18:34:23.984Z,11.10
2017-09-14T18:36:52.059Z,11.10
2017-09-14T18:39:20.131Z,11.00
2017-09-14T18:41:48.228Z,11.00
2017-09-14T18:44:17.092Z,11.00
2017-09-14T18:46:45.935Z,11.00
2017-09-14T18:49:14.026Z,10.90
2017-09-14T18:51:42.125Z,11.00
2017-09-14T18:54:10.231Z,11.00
2017-09-14T18:56:38.307Z,11.00
2017-09-14T18:59:06.379Z,11.00
2017-09-14T19:01:34.495Z,11.00
2017-09-14T19:04:03.338Z,11.00
2017-09-14T19:06:31.840Z,11.00
2017-09-14T19:09:01.050Z,11.00
2017-09-14T19:11:29.919Z,11.00
2017-09-14T19:13:58.382Z,10.90
2017-09-14T19:16:26.490Z,10.90
2017-09-14T19:18:54.571Z,10.90
2017-09-14T19:21:22.653Z,10.90
2017-09-14T19:23:51.515Z,10.90
2017-09-14T19:26:19.635Z,10.90
2017-09-14T19:28:47.723Z,10.90
2017-09-14T19:31:16.567Z,10.90
2017-09-14T19:33:44.675Z,10.90
2017-09-14T19:36:12.795Z,10.90
2017-09-14T19:38:41.636Z,10.90
2017-09-14T19:41:09.708Z,10.90
2017-09-14T19:43:38.566Z,10.90
2017-09-14T19:46:06.647Z,10.90
2017-09-14T19:48:34.743Z,10.90
2017-09-14T19:51:02.814Z,10.90
2017-09-14T19:53:30.937Z,11.00
2017-09-14T19:55:59.016Z,10.90
2017-09-14T19:58:27.083Z,11.00
2017-09-14T20:00:55.179Z,10.90
2017-09-14T20:03:23.255Z,11.00
2017-09-14T20:05:51.358Z,11.00
2017-09-14T20:08:19.426Z,11.00
2017-09-14T20:10:47.498Z,11.00
2017-09-14T20:13:15.590Z,11.10
2017-09-14T20:15:43.662Z,11.00
2017-09-14T20:18:12.522Z,11.10
2017-09-14T20:20:40.599Z,11.10
2017-09-14T20:23:08.699Z,11.10
2017-09-14T20:25:36.771Z,11.10
2017-09-14T20:28:04.867Z,11.20
2017-09-14T20:30:32.983Z,11.20
2017-09-14T20:33:01.447Z,11.20
2017-09-14T20:35:29.923Z,11.20
2017-09-14T20:37:58.015Z,11.30
2017-09-14T20:40:26.144Z,11.30
2017-09-14T20:42:54.950Z,11.30
2017-09-14T20:45:23.792Z,11.20
2017-09-14T20:47:52.671Z,11.20
2017-09-14T20:50:21.155Z,11.20
2017-09-14T20:52:50.022Z,11.20
2017-09-14T20:55:18.506Z,11.20
2017-09-14T20:57:46.607Z,11.10
2017-09-14T21:00:15.496Z,11.20
2017-09-14T21:02:43.650Z,11.10
2017-09-14T21:05:11.714Z,11.20
2017-09-14T21:07:39.799Z,11.20
2017-09-14T21:10:08.283Z,11.20
2017-09-14T21:12:36.755Z,11.20
2017-09-14T21:15:04.863Z,11.20
2017-09-14T21:17:32.944Z,11.20
2017-09-14T21:20:01.415Z,11.20
2017-09-14T21:22:29.511Z,11.20
2017-09-14T21:24:57.615Z,11.20
2017-09-14T21:27:25.691Z,11.30
2017-09-14T21:29:53.773Z,11.30
2017-09-14T21:32:21.862Z,11.30
2017-09-14T21:34:50.725Z,11.20
2017-09-14T21:37:18.827Z,11.30
2017-09-14T21:39:47.683Z,11.20
2017-09-14T21:42:16.151Z,11.20
2017-09-14T21:44:44.247Z,11.30
2017-09-14T21:47:12.330Z,11.30
2017-09-14T21:49:40.408Z,11.40
2017-09-14T21:52:08.514Z,11.40
2017-09-14T21:54:36.587Z,11.40
2017-09-14T21:57:04.672Z,11.30
2017-09-14T21:59:32.763Z,11.30
2017-09-14T22:02:00.871Z,11.30
2017-09-14T22:04:29.712Z,11.20
2017-09-14T22:06:57.799Z,11.20
2017-09-14T22:09:25.874Z,11.20
2017-09-14T22:11:53.949Z,11.30
2017-09-14T22:14:22.125Z,11.40
2017-09-14T22:16:50.295Z,11.30
2017-09-14T22:19:18.371Z,11.30
2017-09-14T22:21:46.543Z,11.30
2017-09-14T22:24:14.614Z,11.20
2017-09-14T22:26:42.718Z,11.30
2017-09-14T22:29:11.555Z,11.30
2017-09-14T22:31:39.627Z,11.30
2017-09-14T22:34:07.739Z,11.30
2017-09-14T22:36:35.814Z,11.30
2017-09-14T22:39:03.911Z,11.20
2017-09-14T22:41:32.751Z,11.30
2017-09-14T22:44:01.615Z,11.20
2017-09-14T22:46:29.709Z,11.20
2017-09-14T22:48:57.896Z,11.20
2017-09-14T22:51:25.998Z,11.20
2017-09-14T22:53:54.850Z,11.20
2017-09-14T22:56:23.699Z,11.20
2017-09-14T22:58:51.803Z,11.20
2017-09-14T23:01:20.646Z,11.20
2017-09-14T23:03:49.483Z,11.20
2017-09-14T23:06:17.578Z,11.20
2017-09-14T23:08:45.651Z,11.10
2017-09-14T23:11:14.511Z,11.20
2017-09-14T23:13:42.586Z,11.10
2017-09-14T23:16:10.689Z,11.20
2017-09-14T23:18:38.757Z,11.10
2017-09-14T23:21:07.255Z,11.10
2017-09-14T23:23:35.330Z,11.10
2017-09-14T23:26:04.171Z,11.10
2017-09-14T23:28:32.678Z,11.10
2017-09-14T23:31:01.148Z,11.10
2017-09-14T23:33:29.214Z,11.10
2017-09-14T23:35:57.306Z,11.10
2017-09-14T23:38:26.147Z,11.20
2017-09-14T23:40:54.247Z,11.20
2017-09-14T23:43:22.322Z,11.20
2017-09-14T23:45:50.398Z,11.30
2017-09-14T23:48:18.498Z,11.30
2017-09-14T23:50:46.571Z,11.20
2017-09-14T23:53:14.662Z,11.30
2017-09-14T23:55:43.503Z,11.30
2017-09-14T23:58:11.607Z,11.20
